sensor_id;sensor_type;location;lat;lon;timestamp;pressure;altitude;pressure_sealevel;temperature;humidity
34961;BME280;30789;52.030;7.110;2023-04-30T00:02:15;101556.13;;;7.66;77.69
34961;BME280;30789;52.030;7.110;2023-04-30T00:04:42;101551.41;;;7.55;77.62
34961;BME280;30789;52.030;7.110;2023-04-30T00:07:08;101560.47;;;7.55;77.90
34961;BME280;30789;52.030;7.110;2023-04-30T00:09:35;101555.44;;;7.57;77.07
34961;BME280;30789;52.030;7.110;2023-04-30T00:12:01;101558.50;;;7.44;77.98
34961;BME280;30789;52.030;7.110;2023-04-30T00:14:28;101557.72;;;7.31;78.14
34961;BME280;30789;52.030;7.110;2023-04-30T00:16:54;101561.78;;;7.13;78.57
34961;BME280;30789;52.030;7.110;2023-04-30T00:19:22;101563.94;;;7.08;79.52
34961;BME280;30789;52.030;7.110;2023-04-30T00:21:49;101561.66;;;7.10;79.09
34961;BME280;30789;52.030;7.110;2023-04-30T00:24:15;101562.44;;;6.98;79.82
34961;BME280;30789;52.030;7.110;2023-04-30T00:26:42;101565.88;;;7.07;79.55
34961;BME280;30789;52.030;7.110;2023-04-30T00:29:09;101565.53;;;7.09;79.19
34961;BME280;30789;52.030;7.110;2023-04-30T00:31:36;101570.81;;;7.14;79.02
34961;BME280;30789;52.030;7.110;2023-04-30T00:34:03;101570.91;;;7.05;79.38
34961;BME280;30789;52.030;7.110;2023-04-30T00:36:31;101572.16;;;7.08;79.26
34961;BME280;30789;52.030;7.110;2023-04-30T00:38:57;101575.28;;;6.85;80.20
34961;BME280;30789;52.030;7.110;2023-04-30T00:41:24;101570.81;;;6.81;80.75
34961;BME280;30789;52.030;7.110;2023-04-30T00:43:51;101570.81;;;6.81;81.16
34961;BME280;30789;52.030;7.110;2023-04-30T00:46:17;101575.66;;;6.96;80.01
34961;BME280;30789;52.030;7.110;2023-04-30T00:48:44;101576.00;;;6.94;80.10
34961;BME280;30789;52.030;7.110;2023-04-30T00:51:10;101574.94;;;7.20;78.92
34961;BME280;30789;52.030;7.110;2023-04-30T00:53:39;101576.06;;;7.07;79.18
34961;BME280;30789;52.030;7.110;2023-04-30T00:56:07;101575.22;;;6.94;79.71
34961;BME280;30789;52.030;7.110;2023-04-30T00:58:34;101582.91;;;7.13;78.73
34961;BME280;30789;52.030;7.110;2023-04-30T01:01:01;101576.25;;;7.02;79.15
34961;BME280;30789;52.030;7.110;2023-04-30T01:03:28;101571.88;;;6.88;78.83
34961;BME280;30789;52.030;7.110;2023-04-30T01:05:55;101573.53;;;6.69;79.23
34961;BME280;30789;52.030;7.110;2023-04-30T01:08:21;101577.03;;;6.57;79.66
34961;BME280;30789;52.030;7.110;2023-04-30T01:10:53;101582.91;;;6.68;79.82
34961;BME280;30789;52.030;7.110;2023-04-30T01:13:25;101570.44;;;6.70;79.73
34961;BME280;30789;52.030;7.110;2023-04-30T01:15:59;101571.13;;;6.67;79.83
34961;BME280;30789;52.030;7.110;2023-04-30T01:18:32;101571.09;;;6.55;79.83
34961;BME280;30789;52.030;7.110;2023-04-30T01:21:03;101570.31;;;6.67;79.67
34961;BME280;30789;52.030;7.110;2023-04-30T01:23:46;101565.66;;;6.67;79.31
34961;BME280;30789;52.030;7.110;2023-04-30T01:26:19;101577.81;;;6.58;79.40
34961;BME280;30789;52.030;7.110;2023-04-30T01:28:56;101576.28;;;6.48;80.00
34961;BME280;30789;52.030;7.110;2023-04-30T01:31:23;101576.22;;;6.36;80.31
34961;BME280;30789;52.030;7.110;2023-04-30T01:33:49;101574.88;;;6.42;80.27
34961;BME280;30789;52.030;7.110;2023-04-30T01:36:25;101580.09;;;6.35;80.02
34961;BME280;30789;52.030;7.110;2023-04-30T01:39:07;101579.91;;;6.40;79.69
34961;BME280;30789;52.030;7.110;2023-04-30T01:41:41;101582.09;;;6.47;79.37
34961;BME280;30789;52.030;7.110;2023-04-30T01:44:24;101580.31;;;6.51;78.92
34961;BME280;30789;52.030;7.110;2023-04-30T01:46:57;101584.38;;;6.24;79.50
34961;BME280;30789;52.030;7.110;2023-04-30T01:49:36;101580.44;;;6.13;80.22
34961;BME280;30789;52.030;7.110;2023-04-30T01:52:11;101581.38;;;6.17;80.36
34961;BME280;30789;52.030;7.110;2023-04-30T01:54:44;101584.56;;;6.19;80.05
34961;BME280;30789;52.030;7.110;2023-04-30T01:57:17;101583.13;;;6.22;79.84
34961;BME280;30789;52.030;7.110;2023-04-30T01:59:48;101587.44;;;6.02;80.73
34961;BME280;30789;52.030;7.110;2023-04-30T02:02:15;101586.66;;;5.93;81.04
34961;BME280;30789;52.030;7.110;2023-04-30T02:04:41;101582.91;;;6.06;81.10
34961;BME280;30789;52.030;7.110;2023-04-30T02:07:08;101591.59;;;6.08;80.84
34961;BME280;30789;52.030;7.110;2023-04-30T02:09:34;101590.44;;;6.09;80.58
34961;BME280;30789;52.030;7.110;2023-04-30T02:12:01;101591.44;;;6.05;79.63
34961;BME280;30789;52.030;7.110;2023-04-30T02:14:30;101595.09;;;6.09;79.59
34961;BME280;30789;52.030;7.110;2023-04-30T02:16:58;101594.19;;;6.05;80.29
34961;BME280;30789;52.030;7.110;2023-04-30T02:19:24;101594.91;;;6.14;80.01
34961;BME280;30789;52.030;7.110;2023-04-30T02:21:51;101592.69;;;6.07;79.92
34961;BME280;30789;52.030;7.110;2023-04-30T02:24:17;101598.25;;;5.99;80.14
34961;BME280;30789;52.030;7.110;2023-04-30T02:26:44;101603.25;;;5.97;80.50
34961;BME280;30789;52.030;7.110;2023-04-30T02:29:10;101607.03;;;5.84;81.12
34961;BME280;30789;52.030;7.110;2023-04-30T02:31:36;101606.56;;;5.73;81.82
34961;BME280;30789;52.030;7.110;2023-04-30T02:34:04;101598.63;;;5.80;81.22
34961;BME280;30789;52.030;7.110;2023-04-30T02:36:31;101605.28;;;5.71;81.61
34961;BME280;30789;52.030;7.110;2023-04-30T02:39:00;101608.81;;;5.71;81.59
34961;BME280;30789;52.030;7.110;2023-04-30T02:41:27;101606.81;;;5.89;80.87
34961;BME280;30789;52.030;7.110;2023-04-30T02:43:53;101597.19;;;5.83;80.58
34961;BME280;30789;52.030;7.110;2023-04-30T02:46:20;101606.84;;;5.80;80.70
34961;BME280;30789;52.030;7.110;2023-04-30T02:48:46;101602.03;;;5.77;81.21
34961;BME280;30789;52.030;7.110;2023-04-30T02:51:14;101601.22;;;5.77;81.13
34961;BME280;30789;52.030;7.110;2023-04-30T02:53:41;101603.69;;;5.70;81.09
34961;BME280;30789;52.030;7.110;2023-04-30T02:56:07;101596.28;;;5.70;81.07
34961;BME280;30789;52.030;7.110;2023-04-30T02:58:34;101605.63;;;5.69;81.14
34961;BME280;30789;52.030;7.110;2023-04-30T03:01:00;101597.88;;;5.71;81.43
34961;BME280;30789;52.030;7.110;2023-04-30T03:03:26;101596.16;;;5.58;81.56
34961;BME280;30789;52.030;7.110;2023-04-30T03:05:53;101604.81;;;5.69;80.91
34961;BME280;30789;52.030;7.110;2023-04-30T03:08:22;101605.78;;;5.64;81.29
34961;BME280;30789;52.030;7.110;2023-04-30T03:10:48;101603.38;;;5.63;80.96
34961;BME280;30789;52.030;7.110;2023-04-30T03:13:15;101600.97;;;5.61;80.86
34961;BME280;30789;52.030;7.110;2023-04-30T03:15:41;101606.50;;;5.53;81.10
34961;BME280;30789;52.030;7.110;2023-04-30T03:18:08;101608.28;;;5.49;81.37
34961;BME280;30789;52.030;7.110;2023-04-30T03:20:35;101596.22;;;5.50;81.20
34961;BME280;30789;52.030;7.110;2023-04-30T03:23:01;101604.25;;;5.55;81.29
34961;BME280;30789;52.030;7.110;2023-04-30T03:25:29;101606.81;;;5.51;81.28
34961;BME280;30789;52.030;7.110;2023-04-30T03:27:55;101599.63;;;5.47;81.48
34961;BME280;30789;52.030;7.110;2023-04-30T03:30:22;101600.31;;;5.26;81.78
34961;BME280;30789;52.030;7.110;2023-04-30T03:32:49;101602.72;;;5.28;81.97
34961;BME280;30789;52.030;7.110;2023-04-30T03:35:15;101598.53;;;5.39;81.55
34961;BME280;30789;52.030;7.110;2023-04-30T03:37:43;101592.91;;;5.36;81.76
34961;BME280;30789;52.030;7.110;2023-04-30T03:40:10;101596.28;;;5.32;81.57
34961;BME280;30789;52.030;7.110;2023-04-30T03:42:38;101595.34;;;5.28;82.10
34961;BME280;30789;52.030;7.110;2023-04-30T03:45:06;101588.13;;;5.24;81.90
34961;BME280;30789;52.030;7.110;2023-04-30T03:47:32;101585.84;;;5.35;81.38
34961;BME280;30789;52.030;7.110;2023-04-30T03:49:59;101577.47;;;5.31;81.48
34961;BME280;30789;52.030;7.110;2023-04-30T03:52:25;101582.63;;;5.32;81.21
34961;BME280;30789;52.030;7.110;2023-04-30T03:54:52;101590.38;;;5.22;81.69
34961;BME280;30789;52.030;7.110;2023-04-30T03:57:18;101599.78;;;5.42;81.25
34961;BME280;30789;52.030;7.110;2023-04-30T03:59:46;101596.44;;;5.27;81.53
34961;BME280;30789;52.030;7.110;2023-04-30T04:02:13;101597.88;;;5.33;81.74
34961;BME280;30789;52.030;7.110;2023-04-30T04:04:39;101593.88;;;5.31;81.52
34961;BME280;30789;52.030;7.110;2023-04-30T04:07:06;101595.28;;;5.46;80.95
34961;BME280;30789;52.030;7.110;2023-04-30T04:09:33;101590.81;;;5.32;81.19
34961;BME280;30789;52.030;7.110;2023-04-30T04:12:00;101590.31;;;5.39;81.10
34961;BME280;30789;52.030;7.110;2023-04-30T04:14:27;101592.09;;;5.35;81.04
34961;BME280;30789;52.030;7.110;2023-04-30T04:16:54;101588.63;;;5.17;81.66
34961;BME280;30789;52.030;7.110;2023-04-30T04:19:22;101586.69;;;5.18;81.68
34961;BME280;30789;52.030;7.110;2023-04-30T04:21:48;101584.13;;;5.13;82.13
34961;BME280;30789;52.030;7.110;2023-04-30T04:24:14;101589.44;;;5.18;81.88
34961;BME280;30789;52.030;7.110;2023-04-30T04:26:41;101591.34;;;5.17;82.50
34961;BME280;30789;52.030;7.110;2023-04-30T04:29:09;101587.94;;;5.29;81.79
34961;BME280;30789;52.030;7.110;2023-04-30T04:31:36;101589.84;;;5.37;81.92
34961;BME280;30789;52.030;7.110;2023-04-30T04:34:07;101586.16;;;5.33;82.49
34961;BME280;30789;52.030;7.110;2023-04-30T04:36:33;101587.28;;;5.32;82.45
34961;BME280;30789;52.030;7.110;2023-04-30T04:39:00;101581.97;;;5.36;82.81
34961;BME280;30789;52.030;7.110;2023-04-30T04:41:27;101589.22;;;5.32;83.02
34961;BME280;30789;52.030;7.110;2023-04-30T04:43:53;101588.53;;;5.43;83.09
34961;BME280;30789;52.030;7.110;2023-04-30T04:46:20;101584.78;;;5.56;82.93
34961;BME280;30789;52.030;7.110;2023-04-30T04:48:47;101594.25;;;5.59;82.98
34961;BME280;30789;52.030;7.110;2023-04-30T04:51:15;101592.94;;;5.65;82.71
34961;BME280;30789;52.030;7.110;2023-04-30T04:53:41;101595.19;;;5.63;83.03
34961;BME280;30789;52.030;7.110;2023-04-30T04:56:08;101600.81;;;5.66;83.11
34961;BME280;30789;52.030;7.110;2023-04-30T04:58:34;101599.16;;;5.74;83.07
34961;BME280;30789;52.030;7.110;2023-04-30T05:01:01;101598.38;;;5.73;83.01
34961;BME280;30789;52.030;7.110;2023-04-30T05:03:29;101609.34;;;5.65;83.25
34961;BME280;30789;52.030;7.110;2023-04-30T05:05:56;101606.56;;;5.73;83.34
34961;BME280;30789;52.030;7.110;2023-04-30T05:08:24;101610.91;;;5.74;83.43
34961;BME280;30789;52.030;7.110;2023-04-30T05:10:51;101606.84;;;5.80;83.40
34961;BME280;30789;52.030;7.110;2023-04-30T05:13:18;101603.41;;;5.92;83.34
34961;BME280;30789;52.030;7.110;2023-04-30T05:15:44;101602.78;;;5.95;83.28
34961;BME280;30789;52.030;7.110;2023-04-30T05:18:11;101606.44;;;5.99;83.29
34961;BME280;30789;52.030;7.110;2023-04-30T05:20:37;101600.72;;;6.12;83.25
34961;BME280;30789;52.030;7.110;2023-04-30T05:23:03;101607.94;;;6.17;83.53
34961;BME280;30789;52.030;7.110;2023-04-30T05:25:31;101611.47;;;6.17;83.52
34961;BME280;30789;52.030;7.110;2023-04-30T05:27:58;101616.28;;;6.20;83.67
34961;BME280;30789;52.030;7.110;2023-04-30T05:30:24;101611.47;;;6.38;83.49
34961;BME280;30789;52.030;7.110;2023-04-30T05:32:50;101610.94;;;6.44;83.45
34961;BME280;30789;52.030;7.110;2023-04-30T05:35:17;101612.03;;;6.52;83.10
34961;BME280;30789;52.030;7.110;2023-04-30T05:37:44;101609.16;;;7.02;81.81
34961;BME280;30789;52.030;7.110;2023-04-30T05:40:12;101615.72;;;6.88;81.90
34961;BME280;30789;52.030;7.110;2023-04-30T05:42:40;101616.84;;;7.20;81.23
34961;BME280;30789;52.030;7.110;2023-04-30T05:45:08;101621.97;;;7.10;81.54
34961;BME280;30789;52.030;7.110;2023-04-30T05:47:36;101626.78;;;7.13;81.66
34961;BME280;30789;52.030;7.110;2023-04-30T05:50:03;101630.19;;;7.10;81.72
34961;BME280;30789;52.030;7.110;2023-04-30T05:52:29;101625.31;;;7.27;80.97
34961;BME280;30789;52.030;7.110;2023-04-30T05:54:56;101626.78;;;7.13;82.18
34961;BME280;30789;52.030;7.110;2023-04-30T05:57:23;101633.81;;;7.34;81.03
34961;BME280;30789;52.030;7.110;2023-04-30T05:59:51;101636.00;;;7.65;79.43
34961;BME280;30789;52.030;7.110;2023-04-30T06:02:17;101635.53;;;7.51;79.79
34961;BME280;30789;52.030;7.110;2023-04-30T06:04:44;101634.53;;;7.67;78.96
34961;BME280;30789;52.030;7.110;2023-04-30T06:07:10;101639.88;;;7.76;79.10
34961;BME280;30789;52.030;7.110;2023-04-30T06:09:37;101638.75;;;7.89;77.17
34961;BME280;30789;52.030;7.110;2023-04-30T06:12:04;101640.69;;;7.76;78.19
34961;BME280;30789;52.030;7.110;2023-04-30T06:14:30;101643.00;;;7.98;77.00
34961;BME280;30789;52.030;7.110;2023-04-30T06:16:58;101643.09;;;7.90;77.89
34961;BME280;30789;52.030;7.110;2023-04-30T06:19:25;101654.88;;;8.02;77.53
34961;BME280;30789;52.030;7.110;2023-04-30T06:21:51;101649.97;;;7.96;77.91
34961;BME280;30789;52.030;7.110;2023-04-30T06:24:18;101646.88;;;8.21;76.70
34961;BME280;30789;52.030;7.110;2023-04-30T06:26:44;101645.84;;;8.38;75.48
34961;BME280;30789;52.030;7.110;2023-04-30T06:29:11;101651.00;;;8.27;75.76
34961;BME280;30789;52.030;7.110;2023-04-30T06:31:37;101647.31;;;8.35;75.39
34961;BME280;30789;52.030;7.110;2023-04-30T06:34:05;101646.16;;;8.48;74.74
34961;BME280;30789;52.030;7.110;2023-04-30T06:36:32;101650.75;;;8.44;74.59
34961;BME280;30789;52.030;7.110;2023-04-30T06:38:58;101651.03;;;8.67;73.64
34961;BME280;30789;52.030;7.110;2023-04-30T06:41:25;101653.47;;;8.56;74.44
34961;BME280;30789;52.030;7.110;2023-04-30T06:43:51;101649.41;;;8.78;73.94
34961;BME280;30789;52.030;7.110;2023-04-30T06:46:18;101651.69;;;8.76;74.06
34961;BME280;30789;52.030;7.110;2023-04-30T06:48:44;101647.19;;;8.84;73.81
34961;BME280;30789;52.030;7.110;2023-04-30T06:51:12;101650.94;;;8.91;73.25
34961;BME280;30789;52.030;7.110;2023-04-30T06:53:38;101656.91;;;8.93;72.07
34961;BME280;30789;52.030;7.110;2023-04-30T06:56:06;101651.06;;;8.95;72.70
34961;BME280;30789;52.030;7.110;2023-04-30T06:58:32;101654.59;;;9.23;71.76
34961;BME280;30789;52.030;7.110;2023-04-30T07:00:59;101660.16;;;9.26;71.27
34961;BME280;30789;52.030;7.110;2023-04-30T07:03:25;101648.75;;;9.24;71.51
34961;BME280;30789;52.030;7.110;2023-04-30T07:05:52;101654.88;;;9.33;71.50
34961;BME280;30789;52.030;7.110;2023-04-30T07:08:20;101657.00;;;9.24;71.80
34961;BME280;30789;52.030;7.110;2023-04-30T07:10:46;101653.97;;;9.29;72.26
34961;BME280;30789;52.030;7.110;2023-04-30T07:13:13;101654.28;;;9.55;71.06
34961;BME280;30789;52.030;7.110;2023-04-30T07:15:40;101651.78;;;9.66;70.85
34961;BME280;30789;52.030;7.110;2023-04-30T07:18:07;101665.84;;;9.61;71.23
34961;BME280;30789;52.030;7.110;2023-04-30T07:20:34;101663.34;;;9.71;70.43
34961;BME280;30789;52.030;7.110;2023-04-30T07:23:00;101655.09;;;9.71;70.74
34961;BME280;30789;52.030;7.110;2023-04-30T07:25:28;101659.63;;;9.64;71.00
34961;BME280;30789;52.030;7.110;2023-04-30T07:27:54;101656.03;;;9.48;70.38
34961;BME280;30789;52.030;7.110;2023-04-30T07:30:21;101659.25;;;9.81;70.41
34961;BME280;30789;52.030;7.110;2023-04-30T07:32:48;101652.59;;;9.82;70.68
34961;BME280;30789;52.030;7.110;2023-04-30T07:35:14;101661.38;;;9.87;69.90
34961;BME280;30789;52.030;7.110;2023-04-30T07:37:41;101661.72;;;9.70;70.96
34961;BME280;30789;52.030;7.110;2023-04-30T07:40:09;101654.28;;;10.02;69.61
34961;BME280;30789;52.030;7.110;2023-04-30T07:42:38;101659.06;;;10.20;68.73
34961;BME280;30789;52.030;7.110;2023-04-30T07:45:06;101652.59;;;10.13;69.32
34961;BME280;30789;52.030;7.110;2023-04-30T07:47:33;101661.28;;;10.15;69.16
34961;BME280;30789;52.030;7.110;2023-04-30T07:49:59;101656.13;;;10.13;70.38
34961;BME280;30789;52.030;7.110;2023-04-30T07:52:26;101662.16;;;10.34;69.82
34961;BME280;30789;52.030;7.110;2023-04-30T07:54:52;101656.66;;;10.34;68.76
34961;BME280;30789;52.030;7.110;2023-04-30T09:44:59;101661.03;;;14.30;56.32
34961;BME280;30789;52.030;7.110;2023-04-30T09:47:29;101663.13;;;14.44;56.48
34961;BME280;30789;52.030;7.110;2023-04-30T09:49:58;101663.63;;;14.63;55.87
34961;BME280;30789;52.030;7.110;2023-04-30T09:52:25;101660.47;;;14.68;56.03
34961;BME280;30789;52.030;7.110;2023-04-30T09:54:51;101660.66;;;15.14;54.84
34961;BME280;30789;52.030;7.110;2023-04-30T09:57:21;101658.44;;;15.72;52.03
34961;BME280;30789;52.030;7.110;2023-04-30T09:59:50;101651.66;;;16.40;50.86
34961;BME280;30789;52.030;7.110;2023-04-30T10:02:19;101655.59;;;17.50;47.80
34961;BME280;30789;52.030;7.110;2023-04-30T10:04:49;101648.09;;;17.94;48.54
34961;BME280;30789;52.030;7.110;2023-04-30T10:07:20;101645.50;;;18.21;48.37
34961;BME280;30789;52.030;7.110;2023-04-30T10:09:49;101652.13;;;19.35;45.30
34961;BME280;30789;52.030;7.110;2023-04-30T10:12:19;101652.34;;;20.00;43.18
34961;BME280;30789;52.030;7.110;2023-04-30T10:14:55;101640.13;;;20.14;41.99
34961;BME280;30789;52.030;7.110;2023-04-30T10:17:26;101643.22;;;19.13;43.67
34961;BME280;30789;52.030;7.110;2023-04-30T10:19:56;101644.38;;;20.65;41.95
34961;BME280;30789;52.030;7.110;2023-04-30T10:22:24;101649.53;;;21.25;38.40
34961;BME280;30789;52.030;7.110;2023-04-30T10:24:51;101641.47;;;20.68;39.75
34961;BME280;30789;52.030;7.110;2023-04-30T10:27:18;101639.63;;;20.81;40.45
34961;BME280;30789;52.030;7.110;2023-04-30T10:29:45;101638.53;;;21.14;40.09
34961;BME280;30789;52.030;7.110;2023-04-30T10:32:13;101629.56;;;21.23;38.90
34961;BME280;30789;52.030;7.110;2023-04-30T10:34:49;101625.44;;;21.27;38.95
34961;BME280;30789;52.030;7.110;2023-04-30T10:37:20;101623.19;;;21.54;38.17
34961;BME280;30789;52.030;7.110;2023-04-30T10:39:49;101615.25;;;21.85;36.08
34961;BME280;30789;52.030;7.110;2023-04-30T10:42:16;101620.16;;;21.97;37.72
34961;BME280;30789;52.030;7.110;2023-04-30T10:44:43;101617.22;;;20.81;39.62
34961;BME280;30789;52.030;7.110;2023-04-30T10:47:10;101610.09;;;20.77;41.16
34961;BME280;30789;52.030;7.110;2023-04-30T10:49:37;101609.06;;;22.22;37.12
34961;BME280;30789;52.030;7.110;2023-04-30T10:52:06;101606.56;;;22.12;37.91
34961;BME280;30789;52.030;7.110;2023-04-30T10:54:35;101601.22;;;21.85;39.00
34961;BME280;30789;52.030;7.110;2023-04-30T10:57:09;101602.25;;;22.07;38.07
34961;BME280;30789;52.030;7.110;2023-04-30T10:59:36;101595.38;;;22.24;36.63
34961;BME280;30789;52.030;7.110;2023-04-30T11:02:03;101595.84;;;22.23;37.39
34961;BME280;30789;52.030;7.110;2023-04-30T11:04:30;101588.47;;;21.48;38.98
34961;BME280;30789;52.030;7.110;2023-04-30T11:07:10;101591.19;;;22.16;38.47
34961;BME280;30789;52.030;7.110;2023-04-30T11:09:39;101584.00;;;23.51;34.08
34961;BME280;30789;52.030;7.110;2023-04-30T11:12:10;101584.97;;;23.07;35.19
34961;BME280;30789;52.030;7.110;2023-04-30T11:14:40;101585.56;;;23.39;34.34
34961;BME280;30789;52.030;7.110;2023-04-30T11:17:08;101569.16;;;23.25;35.08
34961;BME280;30789;52.030;7.110;2023-04-30T11:19:41;101570.28;;;23.40;33.76
34961;BME280;30789;52.030;7.110;2023-04-30T11:22:17;101567.06;;;22.88;35.74
34961;BME280;30789;52.030;7.110;2023-04-30T11:25:01;101564.25;;;22.88;34.43
34961;BME280;30789;52.030;7.110;2023-04-30T11:27:30;101561.13;;;23.11;34.88
34961;BME280;30789;52.030;7.110;2023-04-30T11:29:57;101560.94;;;22.36;37.85
34961;BME280;30789;52.030;7.110;2023-04-30T11:32:26;101569.78;;;23.17;34.53
34961;BME280;30789;52.030;7.110;2023-04-30T11:34:57;101562.47;;;23.07;35.58
34961;BME280;30789;52.030;7.110;2023-04-30T11:37:29;101556.31;;;23.37;35.18
34961;BME280;30789;52.030;7.110;2023-04-30T11:39:59;101561.66;;;23.69;34.76
34961;BME280;30789;52.030;7.110;2023-04-30T11:42:26;101544.75;;;23.82;34.11
34961;BME280;30789;52.030;7.110;2023-04-30T11:44:54;101557.50;;;23.74;35.45
34961;BME280;30789;52.030;7.110;2023-04-30T11:47:37;101555.16;;;24.62;33.07
34961;BME280;30789;52.030;7.110;2023-04-30T11:50:05;101551.56;;;23.93;34.85
34961;BME280;30789;52.030;7.110;2023-04-30T11:52:33;101550.50;;;24.89;32.66
34961;BME280;30789;52.030;7.110;2023-04-30T11:54:59;101550.41;;;24.59;32.33
34961;BME280;30789;52.030;7.110;2023-04-30T11:57:26;101553.75;;;24.23;32.42
34961;BME280;30789;52.030;7.110;2023-04-30T11:59:52;101550.59;;;24.00;33.42
34961;BME280;30789;52.030;7.110;2023-04-30T12:02:19;101536.78;;;23.68;34.49
34961;BME280;30789;52.030;7.110;2023-04-30T12:04:46;101540.56;;;23.99;34.50
34961;BME280;30789;52.030;7.110;2023-04-30T12:07:12;101532.19;;;23.61;34.93
34961;BME280;30789;52.030;7.110;2023-04-30T12:10:02;101535.09;;;23.70;34.45
34961;BME280;30789;52.030;7.110;2023-04-30T12:12:29;101526.31;;;22.68;36.57
34961;BME280;30789;52.030;7.110;2023-04-30T12:14:56;101523.31;;;23.00;36.28
34961;BME280;30789;52.030;7.110;2023-04-30T12:17:32;101516.34;;;22.79;36.32
34961;BME280;30789;52.030;7.110;2023-04-30T12:20:00;101523.78;;;22.45;37.65
34961;BME280;30789;52.030;7.110;2023-04-30T12:22:27;101513.31;;;22.86;35.53
34961;BME280;30789;52.030;7.110;2023-04-30T12:24:55;101507.78;;;22.83;35.41
34961;BME280;30789;52.030;7.110;2023-04-30T12:27:22;101508.78;;;22.51;38.21
34961;BME280;30789;52.030;7.110;2023-04-30T12:29:49;101511.63;;;23.01;35.85
34961;BME280;30789;52.030;7.110;2023-04-30T12:32:16;101502.28;;;23.04;34.93
34961;BME280;30789;52.030;7.110;2023-04-30T12:34:43;101515.13;;;21.82;36.32
34961;BME280;30789;52.030;7.110;2023-04-30T12:37:13;101507.81;;;20.69;37.99
34961;BME280;30789;52.030;7.110;2023-04-30T12:39:40;101509.25;;;20.77;38.88
34961;BME280;30789;52.030;7.110;2023-04-30T12:42:08;101508.13;;;21.58;38.48
34961;BME280;30789;52.030;7.110;2023-04-30T12:44:41;101513.63;;;21.93;37.74
34961;BME280;30789;52.030;7.110;2023-04-30T12:47:08;101505.03;;;22.13;38.79
34961;BME280;30789;52.030;7.110;2023-04-30T12:49:35;101508.59;;;22.42;36.89
34961;BME280;30789;52.030;7.110;2023-04-30T12:52:03;101498.72;;;22.38;35.40
34961;BME280;30789;52.030;7.110;2023-04-30T12:54:32;101495.41;;;22.68;36.11
34961;BME280;30789;52.030;7.110;2023-04-30T12:57:00;101494.19;;;22.56;36.38
34961;BME280;30789;52.030;7.110;2023-04-30T12:59:29;101506.09;;;22.73;36.86
34961;BME280;30789;52.030;7.110;2023-04-30T13:02:04;101492.72;;;22.64;36.37
34961;BME280;30789;52.030;7.110;2023-04-30T13:04:31;101491.03;;;22.92;35.61
34961;BME280;30789;52.030;7.110;2023-04-30T13:06:58;101486.44;;;22.85;34.83
34961;BME280;30789;52.030;7.110;2023-04-30T13:09:24;101488.69;;;22.65;36.24
34961;BME280;30789;52.030;7.110;2023-04-30T13:11:51;101480.69;;;23.01;36.49
34961;BME280;30789;52.030;7.110;2023-04-30T13:14:18;101480.91;;;23.19;35.23
34961;BME280;30789;52.030;7.110;2023-04-30T13:16:46;101477.72;;;23.55;34.47
34961;BME280;30789;52.030;7.110;2023-04-30T13:19:13;101482.31;;;23.62;33.63
34961;BME280;30789;52.030;7.110;2023-04-30T13:21:40;101473.66;;;22.43;35.19
34961;BME280;30789;52.030;7.110;2023-04-30T13:24:06;101477.44;;;22.24;35.68
34961;BME280;30789;52.030;7.110;2023-04-30T13:26:33;101461.34;;;22.53;35.50
34961;BME280;30789;52.030;7.110;2023-04-30T13:28:59;101462.47;;;23.18;35.26
34961;BME280;30789;52.030;7.110;2023-04-30T13:31:26;101462.81;;;23.08;35.34
34961;BME280;30789;52.030;7.110;2023-04-30T13:33:54;101459.44;;;23.13;34.65
34961;BME280;30789;52.030;7.110;2023-04-30T13:36:20;101452.38;;;22.71;35.38
34961;BME280;30789;52.030;7.110;2023-04-30T13:38:47;101454.16;;;23.27;34.98
34961;BME280;30789;52.030;7.110;2023-04-30T13:41:14;101449.22;;;23.87;35.05
34961;BME280;30789;52.030;7.110;2023-04-30T13:43:40;101454.31;;;24.35;32.45
34961;BME280;30789;52.030;7.110;2023-04-30T13:46:08;101453.06;;;24.15;33.93
34961;BME280;30789;52.030;7.110;2023-04-30T13:48:35;101445.16;;;24.53;33.16
34961;BME280;30789;52.030;7.110;2023-04-30T13:51:03;101449.72;;;24.59;33.42
34961;BME280;30789;52.030;7.110;2023-04-30T13:53:30;101443.38;;;24.16;32.63
34961;BME280;30789;52.030;7.110;2023-04-30T13:55:56;101449.03;;;23.47;33.39
34961;BME280;30789;52.030;7.110;2023-04-30T13:58:23;101439.16;;;22.43;35.78
34961;BME280;30789;52.030;7.110;2023-04-30T14:00:50;101437.34;;;22.24;35.50
34961;BME280;30789;52.030;7.110;2023-04-30T14:03:17;101433.59;;;23.05;34.38
34961;BME280;30789;52.030;7.110;2023-04-30T14:05:43;101436.50;;;23.27;34.30
34961;BME280;30789;52.030;7.110;2023-04-30T14:08:12;101430.06;;;23.14;34.18
34961;BME280;30789;52.030;7.110;2023-04-30T14:10:38;101435.78;;;22.35;34.66
34961;BME280;30789;52.030;7.110;2023-04-30T14:13:05;101420.66;;;21.31;36.76
34961;BME280;30789;52.030;7.110;2023-04-30T14:15:31;101423.66;;;21.24;37.11
34961;BME280;30789;52.030;7.110;2023-04-30T14:17:58;101419.16;;;20.94;36.44
34961;BME280;30789;52.030;7.110;2023-04-30T14:20:25;101418.00;;;21.56;35.96
34961;BME280;30789;52.030;7.110;2023-04-30T14:22:52;101421.97;;;22.28;34.11
34961;BME280;30789;52.030;7.110;2023-04-30T14:25:20;101423.59;;;22.67;34.23
34961;BME280;30789;52.030;7.110;2023-04-30T14:27:46;101423.88;;;23.19;33.44
34961;BME280;30789;52.030;7.110;2023-04-30T14:30:13;101421.28;;;23.71;31.66
34961;BME280;30789;52.030;7.110;2023-04-30T14:32:40;101422.84;;;24.37;31.68
34961;BME280;30789;52.030;7.110;2023-04-30T14:35:07;101420.41;;;24.48;30.65
34961;BME280;30789;52.030;7.110;2023-04-30T14:37:33;101420.72;;;23.42;33.45
34961;BME280;30789;52.030;7.110;2023-04-30T14:40:00;101409.84;;;24.09;33.42
34961;BME280;30789;52.030;7.110;2023-04-30T14:42:28;101391.66;;;25.01;31.96
34961;BME280;30789;52.030;7.110;2023-04-30T14:44:55;101407.22;;;26.23;28.72
34961;BME280;30789;52.030;7.110;2023-04-30T14:47:21;101405.34;;;26.11;28.45